createdAt,value
2018-09-29T00:06:29.040Z,11.43
2018-09-29T00:16:32.873Z,9.30
2018-09-29T00:26:36.487Z,10.33
2018-09-29T00:36:40.192Z,9.30
2018-09-29T00:46:44.164Z,7.17
2018-09-29T00:56:48.207Z,9.80
2018-09-29T01:06:52.529Z,8.63
2018-09-29T01:16:56.102Z,8.60
2018-09-29T01:26:59.676Z,12.60
2018-09-29T01:37:03.359Z,7.50
2018-09-29T01:47:06.968Z,5.63
2018-09-29T01:57:10.545Z,7.07
2018-09-29T02:07:14.143Z,7.97
2018-09-29T02:17:18.334Z,8.37
2018-09-29T02:27:21.879Z,10.00
2018-09-29T02:37:25.494Z,8.03
2018-09-29T02:47:29.072Z,9.47
2018-09-29T02:57:32.674Z,5.50
2018-09-29T03:07:36.481Z,6.27
2018-09-29T03:17:40.031Z,9.27
2018-09-29T03:27:43.645Z,5.03
2018-09-29T03:37:47.226Z,8.20
2018-09-29T03:47:50.848Z,9.97
2018-09-29T03:57:54.372Z,6.47
2018-09-29T04:07:57.937Z,4.90
2018-09-29T04:18:01.481Z,7.33
2018-09-29T04:28:05.152Z,9.70
2018-09-29T04:38:08.833Z,7.40
2018-09-29T04:48:12.886Z,6.43
2018-09-29T04:58:16.561Z,8.00
2018-09-29T05:08:20.174Z,9.57
2018-09-29T05:18:23.917Z,12.10
2018-09-29T05:28:27.525Z,11.80
2018-09-29T05:38:31.400Z,12.27
2018-09-29T05:48:35.010Z,6.27
2018-09-29T05:58:39.593Z,9.37
2018-09-29T06:08:43.169Z,13.23
2018-09-29T06:18:47.874Z,12.27
2018-09-29T06:28:51.428Z,10.27
2018-09-29T06:38:55.011Z,9.43
2018-09-29T06:48:58.548Z,8.03
2018-09-29T06:59:02.175Z,10.13
2018-09-29T07:09:12.822Z,9.37
2018-09-29T07:19:16.414Z,8.93
2018-09-29T07:29:26.304Z,13.83
2018-09-29T07:39:29.879Z,11.07
2018-09-29T07:49:33.541Z,8.10
2018-09-29T07:59:39.526Z,16.43
2018-09-29T08:09:43.116Z,8.50
2018-09-29T08:19:46.657Z,9.20
2018-09-29T08:29:50.295Z,12.73
2018-09-29T08:39:54.546Z,9.03
2018-09-29T08:50:03.975Z,13.67
2018-09-29T09:00:10.276Z,8.17
2018-09-29T09:10:13.857Z,11.33
2018-09-29T09:20:17.512Z,8.70
2018-09-29T09:30:21.172Z,11.53
2018-09-29T09:40:24.667Z,12.53
2018-09-29T09:50:28.328Z,6.87
2018-09-29T10:00:38.169Z,9.47
2018-09-29T10:10:41.778Z,8.47
2018-09-29T10:20:45.370Z,7.33
2018-09-29T10:30:49.885Z,9.33
2018-09-29T10:40:53.479Z,6.30
2018-09-29T10:51:02.076Z,7.40
2018-09-29T11:01:05.836Z,6.50
2018-09-29T11:11:14.939Z,5.70
2018-09-29T11:21:18.514Z,7.27
2018-09-29T11:31:28.234Z,6.63
2018-09-29T11:41:32.528Z,8.43
2018-09-29T11:51:36.260Z,10.47
2018-09-29T12:01:41.269Z,5.63
2018-09-29T12:11:45.699Z,6.83
2018-09-29T12:21:49.279Z,5.93
2018-09-29T12:31:53.440Z,5.90
2018-09-29T12:41:56.996Z,4.27
2018-09-29T12:52:00.697Z,8.03
2018-09-29T13:02:04.283Z,6.78
2018-09-29T13:12:08.944Z,6.23
2018-09-29T13:22:12.820Z,7.93
2018-09-29T13:32:16.517Z,7.77
2018-09-29T13:42:24.804Z,5.83
2018-09-29T13:52:28.415Z,6.13
2018-09-29T14:02:31.973Z,4.70
2018-09-29T14:12:35.687Z,8.53
2018-09-29T14:22:39.912Z,4.33
2018-09-29T14:32:43.650Z,7.03
2018-09-29T14:42:47.241Z,6.17
2018-09-29T14:52:50.922Z,4.13
2018-09-29T15:02:54.798Z,5.93
2018-09-29T15:12:58.367Z,5.83
2018-09-29T15:23:01.941Z,6.37
2018-09-29T15:33:06.188Z,6.70
2018-09-29T15:43:10.728Z,7.53
2018-09-29T15:53:14.348Z,5.40
2018-09-29T16:03:18.565Z,8.77
2018-09-29T16:13:22.099Z,7.50
2018-09-29T16:23:25.624Z,7.40
2018-09-29T16:33:29.807Z,5.07
2018-09-29T16:43:33.605Z,8.47
2018-09-29T16:53:37.623Z,11.70
2018-09-29T17:03:41.383Z,6.43
2018-09-29T17:13:51.894Z,9.97
2018-09-29T17:23:55.502Z,12.10
2018-09-29T17:33:59.071Z,7.97
2018-09-29T17:44:03.359Z,10.60
2018-09-29T17:54:06.976Z,8.70
2018-09-29T18:04:18.403Z,13.03
2018-09-29T18:14:22.499Z,14.87
2018-09-29T18:24:26.157Z,11.77
2018-09-29T18:34:34.559Z,11.60
2018-09-29T18:44:38.705Z,12.07
2018-09-29T18:54:42.298Z,12.53
2018-09-29T19:04:46.165Z,12.83
2018-09-29T19:14:49.707Z,12.50
2018-09-29T19:24:53.663Z,12.47
2018-09-29T19:34:57.234Z,14.03
2018-09-29T19:45:00.820Z,14.10
2018-09-29T19:55:04.976Z,16.57
2018-09-29T20:05:08.591Z,14.93
2018-09-29T20:15:12.764Z,15.20
2018-09-29T20:25:16.386Z,16.23
2018-09-29T20:35:19.960Z,12.60
2018-09-29T20:45:24.283Z,16.30
2018-09-29T20:55:27.899Z,11.30
2018-09-29T21:16:33.078Z,10.63
2018-09-29T21:26:36.777Z,10.33
2018-09-29T21:36:40.404Z,16.70
2018-09-29T21:46:44.971Z,11.20
2018-09-29T21:56:48.635Z,13.40
2018-09-29T22:06:52.767Z,8.57
2018-09-29T22:16:56.449Z,14.03
2018-09-29T22:27:00.108Z,15.57
2018-09-29T22:37:03.664Z,15.57
2018-09-29T22:47:07.202Z,16.00
2018-09-29T22:57:10.936Z,13.23
2018-09-29T23:07:19.930Z,14.67
2018-09-29T23:17:23.508Z,10.70
2018-09-29T23:27:28.063Z,11.53
2018-09-29T23:37:31.663Z,9.13
2018-09-29T23:47:35.237Z,14.10
2018-09-29T23:57:39.127Z,15.70
